createdAt,value
2019-02-08T00:00:41.842Z,29.68
2019-02-08T00:03:45.554Z,29.68
2019-02-08T00:06:49.193Z,29.67
2019-02-08T00:09:53.797Z,29.67
2019-02-08T00:12:57.504Z,29.68
2019-02-08T00:16:01.146Z,29.68
2019-02-08T00:19:04.731Z,29.66
2019-02-08T00:22:08.699Z,29.67
2019-02-08T00:25:15.356Z,29.67
2019-02-08T00:28:19.171Z,29.68
2019-02-08T00:31:22.813Z,29.65
2019-02-08T00:34:26.423Z,29.65
2019-02-08T00:37:32.120Z,29.66
2019-02-08T00:40:35.744Z,29.67
2019-02-08T00:43:39.496Z,29.64
2019-02-08T00:46:43.102Z,29.63
2019-02-08T00:49:46.700Z,29.64
2019-02-08T00:52:50.530Z,29.64
2019-02-08T00:55:54.289Z,29.62
2019-02-08T00:58:58.018Z,29.66
2019-02-08T01:02:02.183Z,29.62
2019-02-08T01:05:06.742Z,29.64
2019-02-08T01:08:10.370Z,29.63
2019-02-08T01:11:15.342Z,29.60
2019-02-08T01:14:20.020Z,29.62
2019-02-08T01:17:23.603Z,29.63
2019-02-08T01:20:28.636Z,29.62
2019-02-08T01:23:32.332Z,29.61
2019-02-08T01:26:36.083Z,29.59
2019-02-08T01:29:39.761Z,29.62
2019-02-08T01:32:51.101Z,29.59
2019-02-08T01:35:58.642Z,29.62
2019-02-08T01:39:02.348Z,29.60
2019-02-08T01:42:05.961Z,29.62
2019-02-08T01:45:10.460Z,29.62
2019-02-08T01:48:14.097Z,29.62
2019-02-08T01:51:17.990Z,29.61
2019-02-08T01:54:21.557Z,29.60
2019-02-08T01:57:25.202Z,29.61
2019-02-08T02:00:39.525Z,29.61
2019-02-08T02:03:43.291Z,29.61
2019-02-08T02:06:46.986Z,29.62
2019-02-08T02:09:50.572Z,29.63
2019-02-08T02:12:54.172Z,29.60
2019-02-08T02:15:57.787Z,29.61
2019-02-08T02:19:01.373Z,29.57
2019-02-08T02:22:05.089Z,29.60
2019-02-08T02:25:10.118Z,29.62
2019-02-08T02:28:13.738Z,29.58
2019-02-08T02:31:17.347Z,29.61
2019-02-08T02:34:20.973Z,29.58
2019-02-08T02:37:25.658Z,29.56
2019-02-08T02:40:29.234Z,29.58
2019-02-08T02:43:32.879Z,29.56
2019-02-08T02:46:36.423Z,29.59
2019-02-08T02:49:40.174Z,29.55
2019-02-08T02:52:43.783Z,29.58
2019-02-08T02:55:47.385Z,29.56
2019-02-08T02:58:50.991Z,29.57
2019-02-08T03:01:54.675Z,29.58
2019-02-08T03:04:58.249Z,29.58
2019-02-08T03:08:02.921Z,29.57
2019-02-08T03:11:06.487Z,29.55
2019-02-08T03:14:10.162Z,29.54
2019-02-08T03:17:13.866Z,29.53
2019-02-08T03:20:18.042Z,29.55
2019-02-08T03:23:21.691Z,29.55
2019-02-08T03:26:26.390Z,29.56
2019-02-08T03:29:29.956Z,29.56
2019-02-08T03:32:33.622Z,29.57
2019-02-08T03:35:37.315Z,29.56
2019-02-08T03:38:41.049Z,29.55
2019-02-08T03:41:44.606Z,29.54
2019-02-08T03:44:48.226Z,29.54
2019-02-08T03:47:51.830Z,29.55
2019-02-08T03:50:55.424Z,29.54
2019-02-08T03:53:59.140Z,29.54
2019-02-08T03:57:02.748Z,29.53
2019-02-08T04:00:09.397Z,29.56
2019-02-08T04:03:12.978Z,29.54
2019-02-08T04:06:18.643Z,29.54
2019-02-08T04:09:22.308Z,29.53
2019-02-08T04:12:26.041Z,29.54
2019-02-08T04:15:29.628Z,29.51
2019-02-08T04:18:33.173Z,29.51
2019-02-08T04:21:36.789Z,29.53
2019-02-08T04:24:40.384Z,29.50
2019-02-08T04:27:44.054Z,29.50
2019-02-08T04:30:47.678Z,29.51
2019-02-08T04:33:51.396Z,29.50
2019-02-08T04:36:54.975Z,29.51
2019-02-08T04:39:58.649Z,29.50
2019-02-08T04:43:02.292Z,29.52
2019-02-08T04:46:05.986Z,29.52
2019-02-08T04:49:09.608Z,29.50
2019-02-08T04:52:13.204Z,29.52
2019-02-08T04:55:16.909Z,29.50
2019-02-08T04:58:20.596Z,29.50
2019-02-08T05:01:24.261Z,29.50
2019-02-08T05:04:27.829Z,29.51
2019-02-08T05:07:31.519Z,29.50
2019-02-08T05:10:35.302Z,29.52
2019-02-08T05:13:39.058Z,29.49
2019-02-08T05:16:42.628Z,29.51
2019-02-08T05:19:46.212Z,29.48
2019-02-08T05:22:49.841Z,29.49
2019-02-08T05:25:53.491Z,29.46
2019-02-08T05:28:59.101Z,29.49
2019-02-08T05:32:02.715Z,29.48
2019-02-08T05:35:06.368Z,29.47
2019-02-08T05:38:09.977Z,29.47
2019-02-08T05:41:13.727Z,29.45
2019-02-08T05:44:17.321Z,29.45
2019-02-08T05:47:20.939Z,29.44
2019-02-08T05:50:25.519Z,29.45
2019-02-08T05:53:29.183Z,29.46
2019-02-08T05:56:32.789Z,29.46
2019-02-08T05:59:36.358Z,29.47
2019-02-08T06:02:39.926Z,29.45
2019-02-08T06:05:43.676Z,29.46
2019-02-08T06:08:47.309Z,29.44
2019-02-08T06:11:50.967Z,29.46
2019-02-08T06:14:54.708Z,29.45
2019-02-08T06:17:58.269Z,29.44
2019-02-08T06:21:01.915Z,29.43
2019-02-08T06:24:05.599Z,29.43
2019-02-08T06:27:09.204Z,29.41
2019-02-08T06:30:21.094Z,29.41
2019-02-08T06:33:24.713Z,29.42
2019-02-08T06:36:28.304Z,29.42
2019-02-08T06:39:31.946Z,29.42
2019-02-08T06:42:35.568Z,29.42
2019-02-08T06:45:39.311Z,29.43
2019-02-08T06:48:42.840Z,29.44
2019-02-08T06:51:46.539Z,29.40
2019-02-08T06:54:50.237Z,29.42
2019-02-08T06:58:00.183Z,29.41
2019-02-08T07:01:22.927Z,29.40
2019-02-08T07:04:45.530Z,29.42
2019-02-08T07:08:08.328Z,29.39
2019-02-08T07:11:18.229Z,29.40
2019-02-08T07:14:40.545Z,29.42
2019-02-08T07:18:02.104Z,29.42
2019-02-08T07:21:24.039Z,29.41
2019-02-08T07:24:35.517Z,29.39
2019-02-08T07:27:48.529Z,29.38
2019-02-08T07:31:10.026Z,29.40
2019-02-08T07:34:27.615Z,29.39
2019-02-08T07:37:38.286Z,29.36
2019-02-08T07:40:53.553Z,29.37
2019-02-08T07:44:16.184Z,29.37
2019-02-08T07:47:29.926Z,29.37
2019-02-08T07:50:44.708Z,29.37
2019-02-08T07:54:10.472Z,29.37
2019-02-08T07:57:38.795Z,29.37
2019-02-08T08:00:57.676Z,29.37
2019-02-08T08:04:34.887Z,29.37
2019-02-08T08:07:50.226Z,29.49
2019-02-08T08:11:03.031Z,29.89
2019-02-08T08:14:15.975Z,30.07
2019-02-08T08:17:40.804Z,30.13
2019-02-08T08:21:09.770Z,30.17
2019-02-08T08:24:24.339Z,30.11
2019-02-08T08:27:52.547Z,30.07
2019-02-08T08:31:01.601Z,30.08
2019-02-08T08:34:11.950Z,30.07
2019-02-08T08:38:09.516Z,30.06
2019-02-08T08:41:51.742Z,30.04
2019-02-08T08:45:30.542Z,29.87
2019-02-08T08:48:57.316Z,29.90
2019-02-08T08:52:30.228Z,29.91
2019-02-08T08:56:14.834Z,29.89
2019-02-08T08:59:55.756Z,29.79
2019-02-08T09:03:39.070Z,29.77
2019-02-08T09:07:36.161Z,29.76
2019-02-08T09:11:19.984Z,29.68
2019-02-08T09:15:26.162Z,29.78
2019-02-08T09:19:00.061Z,29.70
2019-02-08T09:22:51.016Z,29.77
2019-02-08T09:26:36.267Z,29.75
2019-02-08T09:30:11.967Z,29.70
2019-02-08T09:34:21.589Z,29.71
2019-02-08T09:37:36.612Z,29.71
2019-02-08T09:41:08.380Z,29.67
2019-02-08T09:44:48.526Z,29.72
2019-02-08T09:48:16.904Z,29.62
2019-02-08T09:51:38.895Z,29.65
2019-02-08T09:55:21.441Z,29.63
2019-02-08T09:58:55.125Z,29.65
2019-02-08T10:02:40.068Z,29.80
2019-02-08T10:06:27.255Z,29.74
2019-02-08T10:10:13.819Z,29.65
2019-02-08T10:13:53.649Z,29.60
2019-02-08T10:17:56.960Z,29.60
2019-02-08T10:21:43.781Z,29.59
2019-02-08T10:25:31.243Z,29.60
2019-02-08T10:29:28.030Z,29.55
2019-02-08T10:33:09.252Z,29.54
2019-02-08T10:36:38.388Z,29.92
2019-02-08T10:40:20.600Z,30.00
2019-02-08T10:44:01.575Z,30.02
2019-02-08T10:48:10.843Z,29.96
2019-02-08T10:52:04.139Z,29.93
2019-02-08T10:55:59.031Z,29.95
2019-02-08T10:59:28.056Z,29.96
2019-02-08T11:03:18.581Z,29.96
2019-02-08T11:06:59.643Z,30.01
2019-02-08T11:10:43.478Z,29.97
2019-02-08T11:14:27.599Z,29.96
2019-02-08T11:18:24.666Z,29.97
2019-02-08T11:21:29.436Z,29.93
2019-02-08T11:24:33.122Z,29.90
2019-02-08T11:27:36.823Z,29.90
2019-02-08T11:30:40.507Z,29.96
2019-02-08T11:33:46.101Z,29.96
2019-02-08T11:36:49.890Z,29.95
2019-02-08T11:40:00.654Z,30.01
2019-02-08T11:43:05.590Z,29.92
2019-02-08T11:46:09.293Z,29.84
2019-02-08T11:49:12.994Z,29.76
2019-02-08T11:52:16.703Z,29.75
2019-02-08T11:55:20.416Z,29.72
2019-02-08T11:58:24.103Z,29.82
2019-02-08T12:01:29.478Z,29.82
2019-02-08T12:04:33.245Z,29.78
2019-02-08T12:07:37.968Z,29.65
2019-02-08T12:10:41.614Z,29.63
2019-02-08T12:13:45.326Z,29.71
2019-02-08T12:16:50.101Z,29.82
2019-02-08T12:19:53.824Z,29.83
2019-02-08T12:22:57.457Z,29.81
2019-02-08T12:26:01.167Z,29.83
2019-02-08T12:29:05.774Z,29.82
2019-02-08T12:32:09.384Z,29.81
2019-02-08T12:35:13.079Z,29.78
2019-02-08T12:38:17.568Z,29.74
2019-02-08T12:41:21.294Z,29.72
2019-02-08T12:44:25.042Z,29.69
2019-02-08T12:47:28.731Z,29.73
2019-02-08T12:50:32.469Z,29.71
2019-02-08T12:53:37.196Z,29.72
2019-02-08T12:56:45.613Z,29.71
2019-02-08T12:59:46.731Z,29.66
2019-02-08T13:02:51.351Z,29.65
2019-02-08T13:05:55.082Z,29.64
2019-02-08T13:08:58.771Z,29.69
2019-02-08T13:12:02.459Z,29.70
2019-02-08T13:15:08.483Z,29.72
2019-02-08T13:18:12.392Z,29.73
2019-02-08T13:21:17.286Z,29.75
2019-02-08T13:24:21.104Z,29.69
2019-02-08T13:27:25.957Z,29.67
2019-02-08T13:30:29.882Z,29.66
2019-02-08T13:33:33.536Z,29.67
2019-02-08T13:36:37.372Z,29.61
2019-02-08T13:39:41.035Z,29.51
2019-02-08T13:42:44.635Z,29.47
2019-02-08T13:45:48.348Z,29.42
2019-02-08T13:48:52.066Z,29.40
2019-02-08T13:51:55.790Z,29.37
2019-02-08T13:54:59.516Z,29.39
2019-02-08T13:58:03.162Z,29.36
2019-02-08T14:01:06.933Z,29.49
2019-02-08T14:04:11.875Z,29.69
2019-02-08T14:07:15.827Z,29.64
2019-02-08T14:10:19.954Z,29.74
2019-02-08T14:13:24.289Z,29.69
2019-02-08T14:16:29.154Z,29.67
2019-02-08T14:19:32.827Z,29.66
2019-02-08T14:22:36.521Z,29.65
2019-02-08T14:25:40.251Z,29.65
2019-02-08T14:28:46.111Z,29.69
2019-02-08T14:31:49.861Z,29.69
2019-02-08T14:34:53.582Z,29.73
2019-02-08T14:37:57.700Z,29.71
2019-02-08T14:41:01.466Z,29.67
2019-02-08T14:44:05.440Z,29.66
2019-02-08T14:47:09.009Z,29.71
2019-02-08T14:50:15.647Z,29.69
2019-02-08T14:53:19.337Z,29.70
2019-02-08T14:56:23.036Z,29.70
2019-02-08T14:59:26.720Z,29.70
2019-02-08T15:02:30.453Z,29.68
2019-02-08T15:05:34.111Z,29.69
2019-02-08T15:08:37.827Z,29.68
2019-02-08T15:11:41.526Z,29.70
2019-02-08T15:17:50.386Z,29.67
2019-02-08T15:20:53.865Z,29.71
2019-02-08T15:23:58.609Z,29.71
2019-02-08T15:27:02.522Z,29.71
2019-02-08T15:30:07.322Z,29.73
2019-02-08T15:33:10.948Z,29.71
2019-02-08T15:36:14.651Z,29.76
2019-02-08T15:39:18.388Z,29.74
2019-02-08T15:42:22.176Z,29.74
2019-02-08T15:48:37.973Z,29.75
2019-02-08T15:51:41.473Z,29.78
2019-02-08T15:54:45.150Z,29.77
2019-02-08T15:57:49.707Z,29.78
2019-02-08T16:00:53.330Z,29.72
2019-02-08T16:03:56.971Z,29.69
2019-02-08T16:07:00.634Z,29.65
2019-02-08T16:10:04.329Z,29.64
2019-02-08T16:13:08.870Z,29.64
2019-02-08T16:16:12.475Z,29.63
2019-02-08T16:19:16.047Z,29.62
2019-02-08T16:22:20.616Z,29.59
2019-02-08T16:25:25.858Z,29.60
2019-02-08T16:28:29.523Z,29.60
2019-02-08T16:31:33.119Z,29.59
2019-02-08T16:34:36.625Z,29.63
2019-02-08T16:37:40.136Z,29.58
2019-02-08T16:40:43.623Z,29.68
2019-02-08T16:43:47.227Z,30.37
2019-02-08T16:46:50.665Z,30.43
2019-02-08T16:49:54.150Z,30.44
2019-02-08T16:52:57.736Z,30.37
2019-02-08T16:56:01.348Z,30.34
2019-02-08T16:59:05.871Z,30.31
2019-02-08T17:02:09.399Z,30.32
2019-02-08T17:05:14.185Z,30.32
2019-02-08T17:08:17.801Z,30.32
2019-02-08T17:11:21.426Z,30.33
2019-02-08T17:14:25.003Z,30.28
2019-02-08T17:17:28.520Z,30.26
2019-02-08T17:20:36.855Z,30.28
2019-02-08T17:23:40.533Z,30.31
2019-02-08T17:26:45.273Z,30.27
2019-02-08T17:29:48.897Z,30.29
2019-02-08T17:32:52.384Z,30.30
2019-02-08T17:35:55.891Z,30.28
2019-02-08T17:39:00.384Z,30.28
2019-02-08T17:42:03.907Z,30.29
2019-02-08T17:45:10.203Z,30.30
2019-02-08T17:48:14.794Z,30.32
2019-02-08T17:51:19.517Z,30.37
2019-02-08T17:54:25.679Z,30.35
2019-02-08T17:57:28.356Z,30.40
2019-02-08T18:01:01.415Z,30.38
2019-02-08T18:04:05.340Z,30.38
2019-02-08T18:07:08.966Z,30.37
2019-02-08T18:10:15.699Z,30.42
2019-02-08T18:13:19.351Z,30.41
2019-02-08T18:16:22.966Z,30.42
2019-02-08T18:19:26.478Z,30.40
2019-02-08T18:22:30.092Z,30.42
2019-02-08T18:25:33.679Z,30.39
2019-02-08T18:28:37.145Z,30.38
2019-02-08T18:31:40.670Z,30.37
2019-02-08T18:34:44.166Z,30.42
2019-02-08T18:37:47.685Z,30.44
2019-02-08T18:40:52.213Z,30.43
2019-02-08T18:43:55.736Z,30.40
2019-02-08T18:46:59.209Z,30.31
2019-02-08T18:50:02.699Z,30.42
2019-02-08T18:53:08.243Z,30.41
2019-02-08T18:56:12.788Z,30.40
2019-02-08T18:59:16.277Z,30.38
2019-02-08T19:02:19.778Z,30.43
2019-02-08T19:05:23.284Z,30.44
2019-02-08T19:08:27.795Z,30.43
2019-02-08T19:11:32.536Z,30.43
2019-02-08T19:14:36.129Z,30.43
2019-02-08T19:17:39.589Z,30.49
2019-02-08T19:20:43.130Z,30.47
2019-02-08T19:23:46.740Z,30.45
2019-02-08T19:26:51.374Z,30.46
2019-02-08T19:29:54.974Z,30.44
2019-02-08T19:32:58.432Z,30.45
2019-02-08T19:36:02.006Z,30.48
2019-02-08T19:39:07.921Z,30.47
2019-02-08T19:42:11.446Z,30.44
2019-02-08T19:45:16.155Z,30.43
2019-02-08T19:48:20.804Z,30.43
2019-02-08T19:51:24.598Z,30.43
2019-02-08T19:54:28.126Z,30.42
2019-02-08T19:57:31.611Z,30.40
2019-02-08T20:00:36.431Z,30.39
2019-02-08T20:03:40.029Z,30.45
2019-02-08T20:06:43.556Z,30.42
2019-02-08T20:09:47.030Z,30.33
2019-02-08T20:12:50.538Z,30.34
2019-02-08T20:15:54.036Z,30.32
2019-02-08T20:18:57.657Z,30.30
2019-02-08T20:22:02.268Z,30.26
2019-02-08T20:25:09.393Z,30.24
2019-02-08T20:28:13.007Z,30.24
2019-02-08T20:31:16.558Z,30.48
2019-02-08T20:34:20.228Z,30.60
2019-02-08T20:37:23.856Z,30.59
2019-02-08T20:40:29.728Z,30.61
2019-02-08T20:43:33.332Z,30.61
2019-02-08T20:46:36.846Z,30.59
2019-02-08T20:49:40.320Z,30.59
2019-02-08T20:52:45.037Z,30.58
2019-02-08T20:55:48.569Z,30.60
2019-02-08T20:58:52.063Z,30.56
2019-02-08T21:01:55.559Z,30.55
2019-02-08T21:04:59.063Z,30.57
2019-02-08T21:08:02.500Z,30.56
2019-02-08T21:11:06.070Z,30.53
2019-02-08T21:14:09.569Z,30.52
2019-02-08T21:17:13.138Z,30.50
2019-02-08T21:20:16.770Z,30.48
2019-02-08T21:23:22.817Z,30.46
2019-02-08T21:26:26.649Z,30.43
2019-02-08T21:29:30.217Z,30.44
2019-02-08T21:32:34.681Z,30.34
2019-02-08T21:35:38.186Z,30.39
2019-02-08T21:38:41.673Z,30.40
2019-02-08T21:41:45.168Z,30.41
2019-02-08T21:44:51.128Z,30.41
2019-02-08T21:47:55.729Z,30.46
2019-02-08T21:50:59.462Z,30.43
2019-02-08T21:54:03.113Z,30.33
2019-02-08T21:57:06.581Z,30.28
2019-02-08T22:00:17.216Z,30.26
2019-02-08T22:03:20.638Z,30.22
2019-02-08T22:06:24.235Z,30.22
2019-02-08T22:09:27.772Z,30.19
2019-02-08T22:12:31.258Z,30.18
2019-02-08T22:15:35.667Z,30.19
2019-02-08T22:18:39.173Z,30.15
2019-02-08T22:21:42.660Z,30.15
2019-02-08T22:24:46.186Z,30.12
2019-02-08T22:27:49.633Z,30.11
2019-02-08T22:30:55.156Z,30.14
2019-02-08T22:33:58.575Z,30.17
2019-02-08T22:37:02.113Z,30.15
2019-02-08T22:40:07.758Z,30.13
2019-02-08T22:43:11.445Z,30.15
2019-02-08T22:46:18.119Z,30.17
2019-02-08T22:49:21.656Z,30.16
2019-02-08T22:52:25.182Z,30.12
2019-02-08T22:55:30.275Z,30.15
2019-02-08T22:58:34.092Z,30.14
2019-02-08T23:01:40.069Z,30.15
2019-02-08T23:04:44.702Z,30.12
2019-02-08T23:07:48.181Z,30.09
2019-02-08T23:10:51.679Z,30.07
2019-02-08T23:13:55.189Z,30.03
2019-02-08T23:16:58.696Z,30.06
2019-02-08T23:20:02.185Z,30.06
2019-02-08T23:23:07.752Z,30.03
2019-02-08T23:26:11.257Z,30.02
2019-02-08T23:29:15.772Z,30.01
2019-02-08T23:32:19.250Z,30.01
2019-02-08T23:35:22.779Z,30.02
2019-02-08T23:38:26.261Z,30.02
2019-02-08T23:41:29.697Z,30.02
2019-02-08T23:44:33.161Z,30.02
2019-02-08T23:47:36.787Z,30.03
2019-02-08T23:50:40.225Z,30.03
2019-02-08T23:53:43.773Z,30.04
2019-02-08T23:56:47.269Z,30.01
2019-02-08T23:59:50.777Z,30.04
